sensor_id;sensor_type;location;lat;lon;timestamp;P1;durP1;ratioP1;P2;durP2;ratioP2
27985;SDS011;15453;53.692;10.168;2022-11-02T00:01:02;7.05;;;1.60;;
27985;SDS011;15453;53.692;10.168;2022-11-02T00:03:37;8.88;;;2.13;;
27985;SDS011;15453;53.692;10.168;2022-11-02T00:06:03;6.03;;;1.50;;
27985;SDS011;15453;53.692;10.168;2022-11-02T00:08:28;7.20;;;2.38;;
27985;SDS011;15453;53.692;10.168;2022-11-02T00:10:53;7.07;;;1.40;;
27985;SDS011;15453;53.692;10.168;2022-11-02T00:13:18;7.70;;;1.92;;
27985;SDS011;15453;53.692;10.168;2022-11-02T00:15:43;7.43;;;1.90;;
27985;SDS011;15453;53.692;10.168;2022-11-02T00:18:11;11.63;;;2.30;;
27985;SDS011;15453;53.692;10.168;2022-11-02T00:20:37;5.60;;;1.80;;
27985;SDS011;15453;53.692;10.168;2022-11-02T00:23:04;9.60;;;1.90;;
27985;SDS011;15453;53.692;10.168;2022-11-02T00:25:31;6.28;;;1.90;;
27985;SDS011;15453;53.692;10.168;2022-11-02T00:27:57;8.07;;;1.90;;
27985;SDS011;15453;53.692;10.168;2022-11-02T00:30:23;5.10;;;1.35;;
27985;SDS011;15453;53.692;10.168;2022-11-02T00:32:50;7.43;;;2.17;;
27985;SDS011;15453;53.692;10.168;2022-11-02T00:35:15;7.70;;;1.70;;
27985;SDS011;15453;53.692;10.168;2022-11-02T00:37:40;11.85;;;1.85;;
27985;SDS011;15453;53.692;10.168;2022-11-02T00:40:06;5.57;;;1.70;;
27985;SDS011;15453;53.692;10.168;2022-11-02T00:42:31;8.57;;;1.80;;
27985;SDS011;15453;53.692;10.168;2022-11-02T00:44:57;7.35;;;1.98;;
27985;SDS011;15453;53.692;10.168;2022-11-02T00:47:22;8.40;;;2.00;;
27985;SDS011;15453;53.692;10.168;2022-11-02T00:49:47;10.27;;;2.03;;
27985;SDS011;15453;53.692;10.168;2022-11-02T00:52:12;9.18;;;2.65;;
27985;SDS011;15453;53.692;10.168;2022-11-02T00:54:38;8.00;;;1.80;;
27985;SDS011;15453;53.692;10.168;2022-11-02T00:57:03;9.05;;;1.90;;
27985;SDS011;15453;53.692;10.168;2022-11-02T00:59:28;14.13;;;2.15;;
27985;SDS011;15453;53.692;10.168;2022-11-02T01:01:54;7.82;;;2.22;;
27985;SDS011;15453;53.692;10.168;2022-11-02T01:04:19;5.95;;;1.92;;
27985;SDS011;15453;53.692;10.168;2022-11-02T01:06:44;6.10;;;1.63;;
27985;SDS011;15453;53.692;10.168;2022-11-02T01:09:10;6.35;;;1.42;;
27985;SDS011;15453;53.692;10.168;2022-11-02T01:11:38;7.10;;;1.70;;
27985;SDS011;15453;53.692;10.168;2022-11-02T01:14:04;9.57;;;1.77;;
27985;SDS011;15453;53.692;10.168;2022-11-02T01:16:29;10.57;;;1.98;;
27985;SDS011;15453;53.692;10.168;2022-11-02T01:18:56;11.73;;;1.90;;
27985;SDS011;15453;53.692;10.168;2022-11-02T01:21:21;7.55;;;1.98;;
27985;SDS011;15453;53.692;10.168;2022-11-02T01:23:47;7.75;;;1.92;;
27985;SDS011;15453;53.692;10.168;2022-11-02T01:26:12;10.82;;;2.17;;
27985;SDS011;15453;53.692;10.168;2022-11-02T01:28:38;8.80;;;1.83;;
27985;SDS011;15453;53.692;10.168;2022-11-02T01:31:03;8.45;;;1.95;;
27985;SDS011;15453;53.692;10.168;2022-11-02T01:33:29;8.48;;;2.72;;
27985;SDS011;15453;53.692;10.168;2022-11-02T01:35:55;9.00;;;1.98;;
27985;SDS011;15453;53.692;10.168;2022-11-02T01:38:20;9.07;;;2.15;;
27985;SDS011;15453;53.692;10.168;2022-11-02T01:40:45;10.55;;;2.00;;
27985;SDS011;15453;53.692;10.168;2022-11-02T01:43:24;7.68;;;1.75;;
27985;SDS011;15453;53.692;10.168;2022-11-02T01:45:58;10.75;;;2.17;;
27985;SDS011;15453;53.692;10.168;2022-11-02T01:51:04;7.45;;;1.95;;
27985;SDS011;15453;53.692;10.168;2022-11-02T01:53:33;10.27;;;2.15;;
27985;SDS011;15453;53.692;10.168;2022-11-02T01:56:01;6.13;;;1.80;;
27985;SDS011;15453;53.692;10.168;2022-11-02T01:58:28;6.25;;;1.50;;
27985;SDS011;15453;53.692;10.168;2022-11-02T02:00:54;8.05;;;2.00;;
27985;SDS011;15453;53.692;10.168;2022-11-02T02:03:20;10.82;;;2.35;;
27985;SDS011;15453;53.692;10.168;2022-11-02T02:05:52;7.80;;;1.85;;
27985;SDS011;15453;53.692;10.168;2022-11-02T02:08:22;6.03;;;1.55;;
27985;SDS011;15453;53.692;10.168;2022-11-02T02:10:48;10.30;;;2.22;;
27985;SDS011;15453;53.692;10.168;2022-11-02T02:13:14;7.38;;;1.83;;
27985;SDS011;15453;53.692;10.168;2022-11-02T02:15:48;9.48;;;2.28;;
27985;SDS011;15453;53.692;10.168;2022-11-02T02:18:25;7.15;;;1.75;;
27985;SDS011;15453;53.692;10.168;2022-11-02T02:23:46;7.22;;;1.80;;
27985;SDS011;15453;53.692;10.168;2022-11-02T02:26:45;8.05;;;1.50;;
27985;SDS011;15453;53.692;10.168;2022-11-02T02:29:18;5.20;;;1.42;;
27985;SDS011;15453;53.692;10.168;2022-11-02T02:32:32;6.22;;;1.60;;
27985;SDS011;15453;53.692;10.168;2022-11-02T02:34:48;13.25;;;2.35;;
27985;SDS011;15453;53.692;10.168;2022-11-02T02:37:20;14.63;;;2.42;;
27985;SDS011;15453;53.692;10.168;2022-11-02T02:39:56;7.18;;;1.90;;
27985;SDS011;15453;53.692;10.168;2022-11-02T02:42:36;10.70;;;2.05;;
27985;SDS011;15453;53.692;10.168;2022-11-02T02:47:58;13.85;;;2.53;;
27985;SDS011;15453;53.692;10.168;2022-11-02T02:50:33;5.65;;;1.98;;
27985;SDS011;15453;53.692;10.168;2022-11-02T02:53:03;8.57;;;1.95;;
27985;SDS011;15453;53.692;10.168;2022-11-02T02:55:31;10.02;;;2.10;;
27985;SDS011;15453;53.692;10.168;2022-11-02T02:58:04;6.97;;;1.98;;
27985;SDS011;15453;53.692;10.168;2022-11-02T03:00:32;9.77;;;2.22;;
27985;SDS011;15453;53.692;10.168;2022-11-02T03:02:58;8.85;;;1.90;;
27985;SDS011;15453;53.692;10.168;2022-11-02T03:05:26;7.30;;;1.52;;
27985;SDS011;15453;53.692;10.168;2022-11-02T03:07:54;7.20;;;2.03;;
27985;SDS011;15453;53.692;10.168;2022-11-02T03:10:27;9.60;;;2.00;;
27985;SDS011;15453;53.692;10.168;2022-11-02T03:16:05;8.35;;;1.95;;
27985;SDS011;15453;53.692;10.168;2022-11-02T03:21:23;8.20;;;2.03;;
27985;SDS011;15453;53.692;10.168;2022-11-02T03:24:06;10.07;;;1.60;;
27985;SDS011;15453;53.692;10.168;2022-11-02T03:29:35;7.00;;;2.13;;
27985;SDS011;15453;53.692;10.168;2022-11-02T03:32:10;10.45;;;1.80;;
27985;SDS011;15453;53.692;10.168;2022-11-02T03:34:43;7.50;;;2.00;;
27985;SDS011;15453;53.692;10.168;2022-11-02T03:39:53;8.65;;;2.05;;
27985;SDS011;15453;53.692;10.168;2022-11-02T03:42:24;9.00;;;2.22;;
27985;SDS011;15453;53.692;10.168;2022-11-02T03:44:55;10.95;;;2.40;;
27985;SDS011;15453;53.692;10.168;2022-11-02T03:47:24;7.05;;;1.42;;
27985;SDS011;15453;53.692;10.168;2022-11-02T03:49:54;9.90;;;2.63;;
27985;SDS011;15453;53.692;10.168;2022-11-02T03:52:22;11.23;;;3.17;;
27985;SDS011;15453;53.692;10.168;2022-11-02T03:57:33;14.77;;;2.08;;
27985;SDS011;15453;53.692;10.168;2022-11-02T04:00:11;10.70;;;1.98;;
27985;SDS011;15453;53.692;10.168;2022-11-02T04:02:41;10.73;;;1.92;;
27985;SDS011;15453;53.692;10.168;2022-11-02T04:05:10;8.13;;;1.52;;
27985;SDS011;15453;53.692;10.168;2022-11-02T04:07:36;9.30;;;1.70;;
27985;SDS011;15453;53.692;10.168;2022-11-02T04:10:23;4.88;;;1.48;;
27985;SDS011;15453;53.692;10.168;2022-11-02T04:12:48;6.82;;;1.50;;
27985;SDS011;15453;53.692;10.168;2022-11-02T04:15:32;8.93;;;1.80;;
27985;SDS011;15453;53.692;10.168;2022-11-02T04:17:58;8.10;;;2.38;;
27985;SDS011;15453;53.692;10.168;2022-11-02T04:20:42;8.68;;;1.77;;
27985;SDS011;15453;53.692;10.168;2022-11-02T04:23:07;10.20;;;2.13;;
27985;SDS011;15453;53.692;10.168;2022-11-02T04:25:54;7.32;;;1.70;;
27985;SDS011;15453;53.692;10.168;2022-11-02T04:28:19;10.55;;;2.00;;
27985;SDS011;15453;53.692;10.168;2022-11-02T04:30:45;8.43;;;2.72;;
27985;SDS011;15453;53.692;10.168;2022-11-02T04:33:10;5.78;;;1.63;;
27985;SDS011;15453;53.692;10.168;2022-11-02T04:35:54;7.40;;;1.70;;
27985;SDS011;15453;53.692;10.168;2022-11-02T04:38:19;5.55;;;1.83;;
27985;SDS011;15453;53.692;10.168;2022-11-02T04:41:03;12.48;;;1.88;;
27985;SDS011;15453;53.692;10.168;2022-11-02T04:43:47;14.60;;;2.90;;
27985;SDS011;15453;53.692;10.168;2022-11-02T04:46:12;13.10;;;2.78;;
27985;SDS011;15453;53.692;10.168;2022-11-02T04:48:37;12.05;;;2.03;;
27985;SDS011;15453;53.692;10.168;2022-11-02T04:51:02;9.25;;;1.90;;
27985;SDS011;15453;53.692;10.168;2022-11-02T04:53:28;7.57;;;1.80;;
27985;SDS011;15453;53.692;10.168;2022-11-02T04:55:53;9.60;;;1.85;;
27985;SDS011;15453;53.692;10.168;2022-11-02T04:58:18;12.40;;;2.42;;
27985;SDS011;15453;53.692;10.168;2022-11-02T05:00:44;7.78;;;1.85;;
27985;SDS011;15453;53.692;10.168;2022-11-02T05:03:09;10.38;;;1.85;;
27985;SDS011;15453;53.692;10.168;2022-11-02T05:05:34;10.23;;;2.15;;
27985;SDS011;15453;53.692;10.168;2022-11-02T05:07:59;7.07;;;2.30;;
27985;SDS011;15453;53.692;10.168;2022-11-02T05:10:24;9.07;;;1.95;;
27985;SDS011;15453;53.692;10.168;2022-11-02T05:12:57;7.20;;;1.98;;
27985;SDS011;15453;53.692;10.168;2022-11-02T05:15:23;10.32;;;2.20;;
27985;SDS011;15453;53.692;10.168;2022-11-02T05:17:48;10.45;;;1.92;;
27985;SDS011;15453;53.692;10.168;2022-11-02T05:20:13;6.82;;;2.38;;
27985;SDS011;15453;53.692;10.168;2022-11-02T05:22:41;16.50;;;2.17;;
27985;SDS011;15453;53.692;10.168;2022-11-02T05:25:07;10.25;;;2.20;;
27985;SDS011;15453;53.692;10.168;2022-11-02T05:27:33;8.85;;;2.33;;
27985;SDS011;15453;53.692;10.168;2022-11-02T05:29:58;10.15;;;1.80;;
27985;SDS011;15453;53.692;10.168;2022-11-02T05:32:24;10.68;;;2.20;;
27985;SDS011;15453;53.692;10.168;2022-11-02T05:34:50;12.25;;;2.65;;
27985;SDS011;15453;53.692;10.168;2022-11-02T05:37:15;10.23;;;1.75;;
27985;SDS011;15453;53.692;10.168;2022-11-02T05:39:41;14.07;;;2.55;;
27985;SDS011;15453;53.692;10.168;2022-11-02T05:42:06;8.55;;;2.38;;
27985;SDS011;15453;53.692;10.168;2022-11-02T05:44:31;9.15;;;2.45;;
27985;SDS011;15453;53.692;10.168;2022-11-02T05:46:56;6.95;;;1.70;;
27985;SDS011;15453;53.692;10.168;2022-11-02T05:49:22;13.40;;;2.65;;
27985;SDS011;15453;53.692;10.168;2022-11-02T05:51:47;7.43;;;2.10;;
27985;SDS011;15453;53.692;10.168;2022-11-02T05:54:13;5.68;;;1.58;;
27985;SDS011;15453;53.692;10.168;2022-11-02T05:56:38;9.38;;;2.20;;
27985;SDS011;15453;53.692;10.168;2022-11-02T05:59:04;14.07;;;2.60;;
27985;SDS011;15453;53.692;10.168;2022-11-02T06:01:29;12.68;;;2.28;;
27985;SDS011;15453;53.692;10.168;2022-11-02T06:03:54;8.35;;;2.03;;
27985;SDS011;15453;53.692;10.168;2022-11-02T06:06:19;13.95;;;2.50;;
27985;SDS011;15453;53.692;10.168;2022-11-02T06:08:45;20.10;;;2.30;;
27985;SDS011;15453;53.692;10.168;2022-11-02T06:11:10;8.52;;;1.77;;
27985;SDS011;15453;53.692;10.168;2022-11-02T06:13:37;10.50;;;2.33;;
27985;SDS011;15453;53.692;10.168;2022-11-02T06:16:03;10.38;;;1.95;;
27985;SDS011;15453;53.692;10.168;2022-11-02T06:18:30;10.05;;;2.15;;
27985;SDS011;15453;53.692;10.168;2022-11-02T06:20:58;12.85;;;2.63;;
27985;SDS011;15453;53.692;10.168;2022-11-02T06:23:24;12.25;;;2.60;;
27985;SDS011;15453;53.692;10.168;2022-11-02T06:25:50;9.02;;;2.00;;
27985;SDS011;15453;53.692;10.168;2022-11-02T06:28:16;10.80;;;1.92;;
27985;SDS011;15453;53.692;10.168;2022-11-02T06:30:42;9.27;;;2.00;;
27985;SDS011;15453;53.692;10.168;2022-11-02T06:33:07;8.02;;;2.28;;
27985;SDS011;15453;53.692;10.168;2022-11-02T06:35:32;9.07;;;2.22;;
27985;SDS011;15453;53.692;10.168;2022-11-02T06:37:57;7.78;;;1.77;;
27985;SDS011;15453;53.692;10.168;2022-11-02T06:40:23;10.93;;;2.03;;
27985;SDS011;15453;53.692;10.168;2022-11-02T06:42:48;10.90;;;1.90;;
27985;SDS011;15453;53.692;10.168;2022-11-02T06:45:22;6.22;;;1.77;;
27985;SDS011;15453;53.692;10.168;2022-11-02T06:47:48;10.45;;;2.42;;
27985;SDS011;15453;53.692;10.168;2022-11-02T06:50:13;11.85;;;2.92;;
27985;SDS011;15453;53.692;10.168;2022-11-02T06:52:41;12.45;;;2.50;;
27985;SDS011;15453;53.692;10.168;2022-11-02T06:55:08;10.57;;;1.80;;
27985;SDS011;15453;53.692;10.168;2022-11-02T06:57:36;9.77;;;2.53;;
27985;SDS011;15453;53.692;10.168;2022-11-02T07:00:03;9.48;;;2.03;;
27985;SDS011;15453;53.692;10.168;2022-11-02T07:02:30;7.65;;;2.03;;
27985;SDS011;15453;53.692;10.168;2022-11-02T07:04:55;10.10;;;2.67;;
27985;SDS011;15453;53.692;10.168;2022-11-02T07:07:21;7.78;;;2.13;;
27985;SDS011;15453;53.692;10.168;2022-11-02T07:09:46;9.60;;;2.40;;
27985;SDS011;15453;53.692;10.168;2022-11-02T07:12:12;9.05;;;2.30;;
27985;SDS011;15453;53.692;10.168;2022-11-02T07:14:37;12.57;;;2.30;;
27985;SDS011;15453;53.692;10.168;2022-11-02T07:17:02;9.40;;;1.85;;
27985;SDS011;15453;53.692;10.168;2022-11-02T07:19:28;15.48;;;2.63;;
27985;SDS011;15453;53.692;10.168;2022-11-02T07:21:53;8.70;;;1.92;;
27985;SDS011;15453;53.692;10.168;2022-11-02T07:24:18;9.10;;;2.90;;
27985;SDS011;15453;53.692;10.168;2022-11-02T07:26:46;9.68;;;2.20;;
27985;SDS011;15453;53.692;10.168;2022-11-02T07:29:12;7.35;;;2.13;;
27985;SDS011;15453;53.692;10.168;2022-11-02T07:31:37;8.20;;;1.83;;
27985;SDS011;15453;53.692;10.168;2022-11-02T07:34:03;12.10;;;2.60;;
27985;SDS011;15453;53.692;10.168;2022-11-02T07:36:28;8.15;;;1.77;;
27985;SDS011;15453;53.692;10.168;2022-11-02T07:38:53;10.30;;;2.13;;
27985;SDS011;15453;53.692;10.168;2022-11-02T07:41:18;9.70;;;3.15;;
27985;SDS011;15453;53.692;10.168;2022-11-02T07:43:43;14.48;;;2.78;;
27985;SDS011;15453;53.692;10.168;2022-11-02T07:46:09;11.15;;;2.72;;
27985;SDS011;15453;53.692;10.168;2022-11-02T07:48:35;12.63;;;3.42;;
27985;SDS011;15453;53.692;10.168;2022-11-02T07:51:00;15.40;;;3.95;;
27985;SDS011;15453;53.692;10.168;2022-11-02T07:53:25;19.70;;;7.20;;
27985;SDS011;15453;53.692;10.168;2022-11-02T07:55:51;19.30;;;6.65;;
27985;SDS011;15453;53.692;10.168;2022-11-02T07:58:16;18.45;;;6.32;;
27985;SDS011;15453;53.692;10.168;2022-11-02T08:00:44;12.65;;;5.03;;
27985;SDS011;15453;53.692;10.168;2022-11-02T08:03:10;9.75;;;4.50;;
27985;SDS011;15453;53.692;10.168;2022-11-02T08:05:37;10.95;;;4.20;;
27985;SDS011;15453;53.692;10.168;2022-11-02T08:08:04;16.48;;;4.10;;
27985;SDS011;15453;53.692;10.168;2022-11-02T08:10:31;12.00;;;2.78;;
27985;SDS011;15453;53.692;10.168;2022-11-02T08:12:57;12.35;;;3.50;;
27985;SDS011;15453;53.692;10.168;2022-11-02T08:15:23;11.60;;;3.17;;
27985;SDS011;15453;53.692;10.168;2022-11-02T08:18:02;14.07;;;3.97;;
27985;SDS011;15453;53.692;10.168;2022-11-02T08:20:30;11.15;;;2.65;;
27985;SDS011;15453;53.692;10.168;2022-11-02T08:22:56;9.95;;;2.90;;
27985;SDS011;15453;53.692;10.168;2022-11-02T08:25:22;16.77;;;4.60;;
27985;SDS011;15453;53.692;10.168;2022-11-02T08:27:47;12.50;;;5.03;;
27985;SDS011;15453;53.692;10.168;2022-11-02T08:30:13;13.07;;;4.40;;
27985;SDS011;15453;53.692;10.168;2022-11-02T08:32:38;15.68;;;5.28;;
27985;SDS011;15453;53.692;10.168;2022-11-02T08:35:03;14.27;;;4.70;;
27985;SDS011;15453;53.692;10.168;2022-11-02T08:37:29;11.52;;;3.97;;
27985;SDS011;15453;53.692;10.168;2022-11-02T08:39:55;15.30;;;4.88;;
27985;SDS011;15453;53.692;10.168;2022-11-02T08:42:20;17.15;;;5.22;;
27985;SDS011;15453;53.692;10.168;2022-11-02T08:44:45;16.02;;;4.82;;
27985;SDS011;15453;53.692;10.168;2022-11-02T08:47:10;12.02;;;2.88;;
27985;SDS011;15453;53.692;10.168;2022-11-02T08:49:36;13.63;;;3.05;;
27985;SDS011;15453;53.692;10.168;2022-11-02T08:52:01;7.93;;;2.13;;
27985;SDS011;15453;53.692;10.168;2022-11-02T08:54:26;10.73;;;2.17;;
27985;SDS011;15453;53.692;10.168;2022-11-02T08:56:51;9.50;;;2.47;;
27985;SDS011;15453;53.692;10.168;2022-11-02T08:59:17;9.23;;;2.65;;
27985;SDS011;15453;53.692;10.168;2022-11-02T09:01:42;11.75;;;2.70;;
27985;SDS011;15453;53.692;10.168;2022-11-02T09:04:07;8.82;;;2.60;;
27985;SDS011;15453;53.692;10.168;2022-11-02T09:06:32;8.88;;;2.63;;
27985;SDS011;15453;53.692;10.168;2022-11-02T09:08:58;9.45;;;2.30;;
27985;SDS011;15453;53.692;10.168;2022-11-02T09:11:23;13.95;;;2.03;;
27985;SDS011;15453;53.692;10.168;2022-11-02T09:13:48;11.60;;;2.47;;
27985;SDS011;15453;53.692;10.168;2022-11-02T09:16:14;7.72;;;2.20;;
27985;SDS011;15453;53.692;10.168;2022-11-02T09:18:39;10.80;;;2.25;;
27985;SDS011;15453;53.692;10.168;2022-11-02T09:21:04;8.63;;;2.42;;
27985;SDS011;15453;53.692;10.168;2022-11-02T09:23:30;9.52;;;2.97;;
27985;SDS011;15453;53.692;10.168;2022-11-02T09:25:56;13.25;;;2.60;;
27985;SDS011;15453;53.692;10.168;2022-11-02T09:28:22;9.30;;;2.45;;
27985;SDS011;15453;53.692;10.168;2022-11-02T09:30:48;13.82;;;2.35;;
27985;SDS011;15453;53.692;10.168;2022-11-02T09:33:13;12.35;;;2.70;;
27985;SDS011;15453;53.692;10.168;2022-11-02T09:35:40;7.35;;;1.95;;
27985;SDS011;15453;53.692;10.168;2022-11-02T09:38:07;7.55;;;2.30;;
27985;SDS011;15453;53.692;10.168;2022-11-02T09:40:35;8.25;;;2.15;;
27985;SDS011;15453;53.692;10.168;2022-11-02T09:48:43;10.60;;;2.40;;
27985;SDS011;15453;53.692;10.168;2022-11-02T09:51:13;6.93;;;1.70;;
27985;SDS011;15453;53.692;10.168;2022-11-02T09:53:51;13.05;;;2.35;;
27985;SDS011;15453;53.692;10.168;2022-11-02T09:56:32;8.07;;;2.15;;
27985;SDS011;15453;53.692;10.168;2022-11-02T09:58:59;11.15;;;2.22;;
27985;SDS011;15453;53.692;10.168;2022-11-02T10:07:05;6.68;;;1.67;;
27985;SDS011;15453;53.692;10.168;2022-11-02T10:12:23;13.57;;;3.05;;
27985;SDS011;15453;53.692;10.168;2022-11-02T10:17:28;6.10;;;1.65;;
27985;SDS011;15453;53.692;10.168;2022-11-02T10:19:59;9.63;;;2.13;;
27985;SDS011;15453;53.692;10.168;2022-11-02T10:22:35;7.53;;;2.28;;
27985;SDS011;15453;53.692;10.168;2022-11-02T10:25:05;10.52;;;1.75;;
27985;SDS011;15453;53.692;10.168;2022-11-02T10:27:32;10.02;;;2.50;;
27985;SDS011;15453;53.692;10.168;2022-11-02T10:30:04;10.82;;;2.38;;
27985;SDS011;15453;53.692;10.168;2022-11-02T10:32:34;12.10;;;2.97;;
27985;SDS011;15453;53.692;10.168;2022-11-02T10:35:01;11.63;;;2.17;;
27985;SDS011;15453;53.692;10.168;2022-11-02T10:53:21;5.93;;;1.67;;
27985;SDS011;15453;53.692;10.168;2022-11-02T10:58:31;6.50;;;1.70;;
27985;SDS011;15453;53.692;10.168;2022-11-02T11:01:05;5.97;;;1.10;;
27985;SDS011;15453;53.692;10.168;2022-11-02T11:03:32;6.50;;;1.50;;
27985;SDS011;15453;53.692;10.168;2022-11-02T11:05:58;6.00;;;1.40;;
27985;SDS011;15453;53.692;10.168;2022-11-02T11:08:39;6.88;;;1.73;;
27985;SDS011;15453;53.692;10.168;2022-11-02T11:13:54;5.63;;;1.83;;
27985;SDS011;15453;53.692;10.168;2022-11-02T11:19:01;7.32;;;1.75;;
27985;SDS011;15453;53.692;10.168;2022-11-02T11:21:38;7.85;;;2.05;;
27985;SDS011;15453;53.692;10.168;2022-11-02T11:24:17;9.85;;;2.15;;
27985;SDS011;15453;53.692;10.168;2022-11-02T11:26:45;7.40;;;2.00;;
27985;SDS011;15453;53.692;10.168;2022-11-02T11:29:20;7.38;;;1.70;;
27985;SDS011;15453;53.692;10.168;2022-11-02T11:31:46;5.15;;;1.20;;
27985;SDS011;15453;53.692;10.168;2022-11-02T11:34:21;6.45;;;1.52;;
27985;SDS011;15453;53.692;10.168;2022-11-02T11:36:49;7.68;;;1.35;;
27985;SDS011;15453;53.692;10.168;2022-11-02T11:39:22;7.20;;;1.65;;
27985;SDS011;15453;53.692;10.168;2022-11-02T11:41:50;6.40;;;1.52;;
27985;SDS011;15453;53.692;10.168;2022-11-02T11:44:15;6.53;;;1.45;;
27985;SDS011;15453;53.692;10.168;2022-11-02T11:46:41;8.52;;;1.73;;
27985;SDS011;15453;53.692;10.168;2022-11-02T11:49:18;6.78;;;1.77;;
27985;SDS011;15453;53.692;10.168;2022-11-02T11:51:51;5.30;;;1.10;;
27985;SDS011;15453;53.692;10.168;2022-11-02T11:54:25;5.78;;;1.27;;
27985;SDS011;15453;53.692;10.168;2022-11-02T11:56:59;7.30;;;1.40;;
27985;SDS011;15453;53.692;10.168;2022-11-02T11:59:46;8.50;;;2.00;;
27985;SDS011;15453;53.692;10.168;2022-11-02T12:02:20;5.57;;;1.38;;
27985;SDS011;15453;53.692;10.168;2022-11-02T12:04:57;5.18;;;1.48;;
27985;SDS011;15453;53.692;10.168;2022-11-02T12:10:19;6.30;;;1.20;;
27985;SDS011;15453;53.692;10.168;2022-11-02T12:21:37;6.80;;;1.40;;
27985;SDS011;15453;53.692;10.168;2022-11-02T12:24:18;4.85;;;1.10;;
27985;SDS011;15453;53.692;10.168;2022-11-02T12:27:03;6.97;;;1.50;;
27985;SDS011;15453;53.692;10.168;2022-11-02T12:40:54;5.50;;;1.35;;
27985;SDS011;15453;53.692;10.168;2022-11-02T12:46:14;7.53;;;1.35;;
27985;SDS011;15453;53.692;10.168;2022-11-02T12:55:04;1.65;;;0.50;;
27985;SDS011;15453;53.692;10.168;2022-11-02T12:57:23;2.40;;;0.60;;
27985;SDS011;15453;53.692;10.168;2022-11-02T12:59:52;0.70;;;0.40;;
27985;SDS011;15453;53.692;10.168;2022-11-02T13:05:11;1.67;;;0.70;;
27985;SDS011;15453;53.692;10.168;2022-11-02T13:07:43;3.20;;;0.50;;
27985;SDS011;15453;53.692;10.168;2022-11-02T13:12:44;4.25;;;1.02;;
27985;SDS011;15453;53.692;10.168;2022-11-02T13:15:14;2.17;;;0.80;;
27985;SDS011;15453;53.692;10.168;2022-11-02T13:17:43;10.13;;;1.73;;
27985;SDS011;15453;53.692;10.168;2022-11-02T13:23:03;7.78;;;1.70;;
27985;SDS011;15453;53.692;10.168;2022-11-02T13:25:36;2.50;;;0.80;;
27985;SDS011;15453;53.692;10.168;2022-11-02T13:28:11;3.75;;;0.70;;
27985;SDS011;15453;53.692;10.168;2022-11-02T13:30:40;3.08;;;1.02;;
27985;SDS011;15453;53.692;10.168;2022-11-02T13:33:18;3.10;;;0.75;;
27985;SDS011;15453;53.692;10.168;2022-11-02T13:35:47;4.22;;;0.93;;
27985;SDS011;15453;53.692;10.168;2022-11-02T13:41:18;5.85;;;1.00;;
27985;SDS011;15453;53.692;10.168;2022-11-02T13:44:02;4.80;;;1.00;;
27985;SDS011;15453;53.692;10.168;2022-11-02T13:49:25;2.97;;;0.70;;
27985;SDS011;15453;53.692;10.168;2022-11-02T13:51:59;5.22;;;1.13;;
27985;SDS011;15453;53.692;10.168;2022-11-02T13:54:49;4.70;;;1.00;;
27985;SDS011;15453;53.692;10.168;2022-11-02T13:57:26;10.07;;;1.52;;
27985;SDS011;15453;53.692;10.168;2022-11-02T13:59:56;9.18;;;1.55;;
27985;SDS011;15453;53.692;10.168;2022-11-02T14:02:23;10.13;;;1.40;;
27985;SDS011;15453;53.692;10.168;2022-11-02T14:04:49;3.60;;;1.10;;
27985;SDS011;15453;53.692;10.168;2022-11-02T14:07:19;5.38;;;1.52;;
27985;SDS011;15453;53.692;10.168;2022-11-02T14:09:47;5.80;;;1.23;;
27985;SDS011;15453;53.692;10.168;2022-11-02T14:14:41;10.90;;;1.52;;
27985;SDS011;15453;53.692;10.168;2022-11-02T14:22:15;6.22;;;1.25;;
27985;SDS011;15453;53.692;10.168;2022-11-02T14:34:47;5.15;;;1.20;;
27985;SDS011;15453;53.692;10.168;2022-11-02T14:40:11;8.00;;;1.45;;
27985;SDS011;15453;53.692;10.168;2022-11-02T14:48:42;7.72;;;1.30;;
27985;SDS011;15453;53.692;10.168;2022-11-02T14:51:12;4.90;;;1.35;;
27985;SDS011;15453;53.692;10.168;2022-11-02T14:53:41;8.13;;;2.00;;
27985;SDS011;15453;53.692;10.168;2022-11-02T14:56:07;11.27;;;1.98;;
27985;SDS011;15453;53.692;10.168;2022-11-02T14:58:34;10.02;;;1.30;;
27985;SDS011;15453;53.692;10.168;2022-11-02T15:01:03;7.05;;;1.52;;
27985;SDS011;15453;53.692;10.168;2022-11-02T15:03:31;8.35;;;2.03;;
27985;SDS011;15453;53.692;10.168;2022-11-02T15:08:35;11.43;;;1.80;;
27985;SDS011;15453;53.692;10.168;2022-11-02T15:19:41;5.88;;;1.38;;
27985;SDS011;15453;53.692;10.168;2022-11-02T15:27:55;8.00;;;2.42;;
27985;SDS011;15453;53.692;10.168;2022-11-02T15:30:27;8.02;;;2.65;;
27985;SDS011;15453;53.692;10.168;2022-11-02T15:33:37;6.40;;;2.10;;
27985;SDS011;15453;53.692;10.168;2022-11-02T15:36:01;6.97;;;2.00;;
27985;SDS011;15453;53.692;10.168;2022-11-02T15:38:28;11.45;;;3.50;;
27985;SDS011;15453;53.692;10.168;2022-11-02T15:41:01;11.98;;;2.92;;
27985;SDS011;15453;53.692;10.168;2022-11-02T15:46:20;7.63;;;2.20;;
27985;SDS011;15453;53.692;10.168;2022-11-02T15:52:07;7.75;;;1.77;;
27985;SDS011;15453;53.692;10.168;2022-11-02T15:57:44;7.38;;;1.98;;
27985;SDS011;15453;53.692;10.168;2022-11-02T16:00:18;9.32;;;2.40;;
27985;SDS011;15453;53.692;10.168;2022-11-02T16:02:54;4.82;;;1.73;;
27985;SDS011;15453;53.692;10.168;2022-11-02T16:05:25;8.00;;;2.13;;
27985;SDS011;15453;53.692;10.168;2022-11-02T16:07:54;10.48;;;2.30;;
27985;SDS011;15453;53.692;10.168;2022-11-02T16:10:23;7.65;;;1.80;;
27985;SDS011;15453;53.692;10.168;2022-11-02T16:15:43;7.72;;;1.85;;
27985;SDS011;15453;53.692;10.168;2022-11-02T16:18:22;4.30;;;1.73;;
27985;SDS011;15453;53.692;10.168;2022-11-02T16:20:52;7.35;;;1.80;;
27985;SDS011;15453;53.692;10.168;2022-11-02T16:23:22;5.50;;;1.30;;
27985;SDS011;15453;53.692;10.168;2022-11-02T16:25:50;8.68;;;1.67;;
27985;SDS011;15453;53.692;10.168;2022-11-02T16:28:25;6.10;;;1.77;;
27985;SDS011;15453;53.692;10.168;2022-11-02T16:34:00;7.47;;;1.80;;
27985;SDS011;15453;53.692;10.168;2022-11-02T16:36:30;8.05;;;1.88;;
27985;SDS011;15453;53.692;10.168;2022-11-02T16:41:50;9.20;;;2.00;;
27985;SDS011;15453;53.692;10.168;2022-11-02T16:44:22;9.48;;;1.90;;
27985;SDS011;15453;53.692;10.168;2022-11-02T16:49:18;9.07;;;1.90;;
27985;SDS011;15453;53.692;10.168;2022-11-02T16:51:48;6.72;;;1.90;;
27985;SDS011;15453;53.692;10.168;2022-11-02T16:56:43;5.60;;;1.38;;
27985;SDS011;15453;53.692;10.168;2022-11-02T16:59:12;5.25;;;1.30;;
27985;SDS011;15453;53.692;10.168;2022-11-02T17:01:38;8.55;;;1.65;;
27985;SDS011;15453;53.692;10.168;2022-11-02T17:04:15;5.15;;;1.50;;
27985;SDS011;15453;53.692;10.168;2022-11-02T17:06:43;7.53;;;1.90;;
27985;SDS011;15453;53.692;10.168;2022-11-02T17:09:27;4.53;;;1.45;;
27985;SDS011;15453;53.692;10.168;2022-11-02T17:11:54;5.85;;;1.40;;
27985;SDS011;15453;53.692;10.168;2022-11-02T17:14:22;13.30;;;2.20;;
27985;SDS011;15453;53.692;10.168;2022-11-02T17:17:01;7.45;;;2.50;;
27985;SDS011;15453;53.692;10.168;2022-11-02T17:22:10;9.73;;;2.08;;
27985;SDS011;15453;53.692;10.168;2022-11-02T17:24:38;9.40;;;2.25;;
27985;SDS011;15453;53.692;10.168;2022-11-02T17:27:17;6.88;;;2.03;;
27985;SDS011;15453;53.692;10.168;2022-11-02T17:29:56;6.05;;;1.73;;
27985;SDS011;15453;53.692;10.168;2022-11-02T17:32:21;6.03;;;1.80;;
27985;SDS011;15453;53.692;10.168;2022-11-02T17:34:47;8.00;;;2.13;;
27985;SDS011;15453;53.692;10.168;2022-11-02T17:37:29;5.55;;;1.90;;
27985;SDS011;15453;53.692;10.168;2022-11-02T17:39:58;7.00;;;1.90;;